sensor_id;sensor_type;location;lat;lon;timestamp;temperature;humidity
19090;DHT22;9677;50.656;13.064;2023-06-04T00:02:07;18.20;30.90
19090;DHT22;9677;50.656;13.064;2023-06-04T00:04:35;17.10;30.40
19090;DHT22;9677;50.656;13.064;2023-06-04T00:07:03;17.10;30.50
19090;DHT22;9677;50.656;13.064;2023-06-04T00:09:33;17.10;30.50
19090;DHT22;9677;50.656;13.064;2023-06-04T00:12:02;17.00;30.70
19090;DHT22;9677;50.656;13.064;2023-06-04T00:14:30;17.20;30.80
19090;DHT22;9677;50.656;13.064;2023-06-04T00:16:58;17.00;30.70
19090;DHT22;9677;50.656;13.064;2023-06-04T00:19:26;16.90;30.70
19090;DHT22;9677;50.656;13.064;2023-06-04T00:21:54;16.90;30.80
19090;DHT22;9677;50.656;13.064;2023-06-04T00:24:22;16.80;30.70
19090;DHT22;9677;50.656;13.064;2023-06-04T00:26:52;16.80;30.80
19090;DHT22;9677;50.656;13.064;2023-06-04T00:29:20;16.80;31.00
19090;DHT22;9677;50.656;13.064;2023-06-04T00:31:48;16.70;30.80
19090;DHT22;9677;50.656;13.064;2023-06-04T00:34:17;16.70;31.00
19090;DHT22;9677;50.656;13.064;2023-06-04T00:36:45;16.70;31.10
19090;DHT22;9677;50.656;13.064;2023-06-04T00:39:14;16.70;31.00
19090;DHT22;9677;50.656;13.064;2023-06-04T00:41:42;16.60;31.00
19090;DHT22;9677;50.656;13.064;2023-06-04T00:44:11;16.60;31.10
19090;DHT22;9677;50.656;13.064;2023-06-04T00:46:39;16.60;31.20
19090;DHT22;9677;50.656;13.064;2023-06-04T00:49:07;16.50;31.20
19090;DHT22;9677;50.656;13.064;2023-06-04T00:51:35;16.50;31.20
19090;DHT22;9677;50.656;13.064;2023-06-04T00:54:04;16.50;31.20
19090;DHT22;9677;50.656;13.064;2023-06-04T00:56:36;16.40;31.20
19090;DHT22;9677;50.656;13.064;2023-06-04T00:59:05;16.40;31.30
19090;DHT22;9677;50.656;13.064;2023-06-04T01:01:43;16.30;31.30
19090;DHT22;9677;50.656;13.064;2023-06-04T01:04:18;16.30;31.60
19090;DHT22;9677;50.656;13.064;2023-06-04T01:06:50;16.20;31.60
19090;DHT22;9677;50.656;13.064;2023-06-04T01:09:18;16.20;32.20
19090;DHT22;9677;50.656;13.064;2023-06-04T01:11:47;16.20;31.60
19090;DHT22;9677;50.656;13.064;2023-06-04T01:14:15;16.10;31.60
19090;DHT22;9677;50.656;13.064;2023-06-04T01:16:49;16.00;31.60
19090;DHT22;9677;50.656;13.064;2023-06-04T01:20:03;16.00;31.80
19090;DHT22;9677;50.656;13.064;2023-06-04T01:22:39;16.00;32.30
19090;DHT22;9677;50.656;13.064;2023-06-04T01:25:14;16.00;31.90
19090;DHT22;9677;50.656;13.064;2023-06-04T01:27:48;15.90;31.90
19090;DHT22;9677;50.656;13.064;2023-06-04T01:30:21;15.90;31.90
19090;DHT22;9677;50.656;13.064;2023-06-04T01:32:53;15.90;32.00
19090;DHT22;9677;50.656;13.064;2023-06-04T01:35:22;15.80;32.00
19090;DHT22;9677;50.656;13.064;2023-06-04T01:37:55;15.80;32.00
19090;DHT22;9677;50.656;13.064;2023-06-04T01:40:23;15.80;32.10
19090;DHT22;9677;50.656;13.064;2023-06-04T01:42:52;15.70;32.10
19090;DHT22;9677;50.656;13.064;2023-06-04T01:45:21;15.70;32.10
19090;DHT22;9677;50.656;13.064;2023-06-04T01:47:49;15.60;32.10
19090;DHT22;9677;50.656;13.064;2023-06-04T01:50:19;15.60;32.20
19090;DHT22;9677;50.656;13.064;2023-06-04T01:52:47;15.60;32.30
19090;DHT22;9677;50.656;13.064;2023-06-04T01:55:17;15.50;32.20
19090;DHT22;9677;50.656;13.064;2023-06-04T01:57:46;15.50;32.30
19090;DHT22;9677;50.656;13.064;2023-06-04T02:00:15;15.40;32.40
19090;DHT22;9677;50.656;13.064;2023-06-04T02:02:44;15.40;32.40
19090;DHT22;9677;50.656;13.064;2023-06-04T02:05:15;15.40;32.50
19090;DHT22;9677;50.656;13.064;2023-06-04T02:07:46;15.30;32.50
19090;DHT22;9677;50.656;13.064;2023-06-04T02:10:16;15.30;32.50
19090;DHT22;9677;50.656;13.064;2023-06-04T02:12:53;15.30;32.60
19090;DHT22;9677;50.656;13.064;2023-06-04T02:15:23;16.70;34.20
19090;DHT22;9677;50.656;13.064;2023-06-04T02:17:57;15.20;32.70
19090;DHT22;9677;50.656;13.064;2023-06-04T02:20:27;15.20;32.80
19090;DHT22;9677;50.656;13.064;2023-06-04T02:22:57;15.10;32.70
19090;DHT22;9677;50.656;13.064;2023-06-04T02:25:25;15.10;32.80
19090;DHT22;9677;50.656;13.064;2023-06-04T02:27:53;15.10;32.80
19090;DHT22;9677;50.656;13.064;2023-06-04T02:30:21;15.10;32.90
19090;DHT22;9677;50.656;13.064;2023-06-04T02:32:50;15.10;32.90
19090;DHT22;9677;50.656;13.064;2023-06-04T02:35:20;15.10;32.90
19090;DHT22;9677;50.656;13.064;2023-06-04T02:37:49;15.00;33.00
19090;DHT22;9677;50.656;13.064;2023-06-04T02:40:22;15.00;32.90
19090;DHT22;9677;50.656;13.064;2023-06-04T02:42:50;15.00;33.00
19090;DHT22;9677;50.656;13.064;2023-06-04T02:45:18;14.90;32.90
19090;DHT22;9677;50.656;13.064;2023-06-04T02:47:46;14.90;33.50
19090;DHT22;9677;50.656;13.064;2023-06-04T02:50:14;14.90;33.10
19090;DHT22;9677;50.656;13.064;2023-06-04T02:52:43;15.40;33.40
19090;DHT22;9677;50.656;13.064;2023-06-04T02:55:11;14.80;33.10
19090;DHT22;9677;50.656;13.064;2023-06-04T02:57:42;14.80;33.20
19090;DHT22;9677;50.656;13.064;2023-06-04T03:00:11;14.70;33.30
19090;DHT22;9677;50.656;13.064;2023-06-04T03:02:42;14.70;33.20
19090;DHT22;9677;50.656;13.064;2023-06-04T03:05:12;14.70;33.30
19090;DHT22;9677;50.656;13.064;2023-06-04T03:07:42;14.70;33.40
19090;DHT22;9677;50.656;13.064;2023-06-04T03:10:12;14.60;33.40
19090;DHT22;9677;50.656;13.064;2023-06-04T03:12:42;14.60;33.40
19090;DHT22;9677;50.656;13.064;2023-06-04T03:15:11;14.60;33.50
19090;DHT22;9677;50.656;13.064;2023-06-04T03:17:40;14.50;33.40
19090;DHT22;9677;50.656;13.064;2023-06-04T03:20:09;14.50;33.60
19090;DHT22;9677;50.656;13.064;2023-06-04T03:22:38;14.50;33.60
19090;DHT22;9677;50.656;13.064;2023-06-04T03:25:06;14.50;33.60
19090;DHT22;9677;50.656;13.064;2023-06-04T03:27:35;14.40;33.70
19090;DHT22;9677;50.656;13.064;2023-06-04T03:30:07;14.40;33.60
19090;DHT22;9677;50.656;13.064;2023-06-04T03:32:46;14.40;33.70
19090;DHT22;9677;50.656;13.064;2023-06-04T03:35:15;14.40;33.60
19090;DHT22;9677;50.656;13.064;2023-06-04T03:37:43;14.40;33.70
19090;DHT22;9677;50.656;13.064;2023-06-04T03:40:12;14.30;33.80
19090;DHT22;9677;50.656;13.064;2023-06-04T03:42:43;14.30;33.90
19090;DHT22;9677;50.656;13.064;2023-06-04T03:45:14;14.30;33.90
19090;DHT22;9677;50.656;13.064;2023-06-04T03:47:44;14.30;34.00
19090;DHT22;9677;50.656;13.064;2023-06-04T03:50:14;14.30;34.00
19090;DHT22;9677;50.656;13.064;2023-06-04T03:52:42;14.30;34.00
19090;DHT22;9677;50.656;13.064;2023-06-04T03:55:10;14.20;34.00
19090;DHT22;9677;50.656;13.064;2023-06-04T03:57:40;14.20;34.00
19090;DHT22;9677;50.656;13.064;2023-06-04T04:00:10;14.70;34.20
19090;DHT22;9677;50.656;13.064;2023-06-04T04:02:41;14.20;34.20
19090;DHT22;9677;50.656;13.064;2023-06-04T04:05:20;14.20;34.30
19090;DHT22;9677;50.656;13.064;2023-06-04T04:07:49;14.20;34.20
19090;DHT22;9677;50.656;13.064;2023-06-04T04:10:21;14.10;34.20
19090;DHT22;9677;50.656;13.064;2023-06-04T04:12:49;14.10;34.30
19090;DHT22;9677;50.656;13.064;2023-06-04T04:15:21;14.10;34.30
19090;DHT22;9677;50.656;13.064;2023-06-04T04:17:52;14.10;34.30
19090;DHT22;9677;50.656;13.064;2023-06-04T04:20:21;14.10;34.40
19090;DHT22;9677;50.656;13.064;2023-06-04T04:22:54;14.10;34.40
19090;DHT22;9677;50.656;13.064;2023-06-04T04:25:24;14.10;34.40
19090;DHT22;9677;50.656;13.064;2023-06-04T04:27:52;14.10;34.50
19090;DHT22;9677;50.656;13.064;2023-06-04T04:30:23;14.10;34.50
19090;DHT22;9677;50.656;13.064;2023-06-04T04:32:53;14.10;34.50
19090;DHT22;9677;50.656;13.064;2023-06-04T04:35:28;14.10;34.60
19090;DHT22;9677;50.656;13.064;2023-06-04T04:37:59;14.00;34.70
19090;DHT22;9677;50.656;13.064;2023-06-04T04:40:32;14.00;34.60
19090;DHT22;9677;50.656;13.064;2023-06-04T04:43:03;14.00;34.70
19090;DHT22;9677;50.656;13.064;2023-06-04T04:45:31;14.00;34.70
19090;DHT22;9677;50.656;13.064;2023-06-04T04:48:02;14.00;34.80
19090;DHT22;9677;50.656;13.064;2023-06-04T04:50:31;14.00;35.00
19090;DHT22;9677;50.656;13.064;2023-06-04T04:53:00;14.00;35.00
19090;DHT22;9677;50.656;13.064;2023-06-04T04:55:29;14.00;35.00
19090;DHT22;9677;50.656;13.064;2023-06-04T04:57:58;14.00;35.00
19090;DHT22;9677;50.656;13.064;2023-06-04T05:00:26;14.00;35.10
19090;DHT22;9677;50.656;13.064;2023-06-04T05:02:55;14.00;35.20
19090;DHT22;9677;50.656;13.064;2023-06-04T05:05:25;14.00;35.30
19090;DHT22;9677;50.656;13.064;2023-06-04T05:07:53;14.00;35.20
19090;DHT22;9677;50.656;13.064;2023-06-04T05:10:27;14.00;35.30
19090;DHT22;9677;50.656;13.064;2023-06-04T05:12:57;14.00;35.30
19090;DHT22;9677;50.656;13.064;2023-06-04T05:15:36;14.00;35.50
19090;DHT22;9677;50.656;13.064;2023-06-04T05:18:07;14.00;35.30
19090;DHT22;9677;50.656;13.064;2023-06-04T05:20:39;14.00;35.50
19090;DHT22;9677;50.656;13.064;2023-06-04T05:23:10;14.00;35.70
19090;DHT22;9677;50.656;13.064;2023-06-04T05:25:39;14.10;35.70
19090;DHT22;9677;50.656;13.064;2023-06-04T05:28:08;14.10;35.70
19090;DHT22;9677;50.656;13.064;2023-06-04T05:30:37;14.10;35.80
19090;DHT22;9677;50.656;13.064;2023-06-04T05:33:08;14.10;35.90
19090;DHT22;9677;50.656;13.064;2023-06-04T05:35:51;14.10;35.90
19090;DHT22;9677;50.656;13.064;2023-06-04T05:38:21;14.10;36.00
19090;DHT22;9677;50.656;13.064;2023-06-04T05:40:53;14.10;36.00
19090;DHT22;9677;50.656;13.064;2023-06-04T05:43:23;14.10;36.10
19090;DHT22;9677;50.656;13.064;2023-06-04T05:45:52;14.10;36.20
19090;DHT22;9677;50.656;13.064;2023-06-04T05:48:20;14.10;36.20
19090;DHT22;9677;50.656;13.064;2023-06-04T05:50:50;14.10;36.30
19090;DHT22;9677;50.656;13.064;2023-06-04T05:53:18;14.10;36.40
19090;DHT22;9677;50.656;13.064;2023-06-04T05:55:48;14.10;36.40
19090;DHT22;9677;50.656;13.064;2023-06-04T05:58:16;14.20;36.50
19090;DHT22;9677;50.656;13.064;2023-06-04T06:00:45;14.20;36.60
19090;DHT22;9677;50.656;13.064;2023-06-04T06:03:16;14.20;36.60
19090;DHT22;9677;50.656;13.064;2023-06-04T06:05:47;14.20;36.60
19090;DHT22;9677;50.656;13.064;2023-06-04T06:08:16;14.20;36.70
19090;DHT22;9677;50.656;13.064;2023-06-04T06:10:45;14.20;36.80
19090;DHT22;9677;50.656;13.064;2023-06-04T06:13:13;14.20;36.80
19090;DHT22;9677;50.656;13.064;2023-06-04T06:15:42;14.30;36.90
19090;DHT22;9677;50.656;13.064;2023-06-04T06:18:10;14.30;36.90
19090;DHT22;9677;50.656;13.064;2023-06-04T06:20:38;14.30;37.00
19090;DHT22;9677;50.656;13.064;2023-06-04T06:23:06;14.40;37.10
19090;DHT22;9677;50.656;13.064;2023-06-04T06:25:40;14.40;37.20
19090;DHT22;9677;50.656;13.064;2023-06-04T06:28:14;14.50;37.30
19090;DHT22;9677;50.656;13.064;2023-06-04T06:30:43;14.50;37.30
19090;DHT22;9677;50.656;13.064;2023-06-04T06:33:12;14.60;37.20
19090;DHT22;9677;50.656;13.064;2023-06-04T06:35:40;14.60;37.30
19090;DHT22;9677;50.656;13.064;2023-06-04T06:38:08;14.70;37.30
19090;DHT22;9677;50.656;13.064;2023-06-04T06:40:36;15.00;37.40
19090;DHT22;9677;50.656;13.064;2023-06-04T06:43:05;14.90;37.40
19090;DHT22;9677;50.656;13.064;2023-06-04T06:45:33;16.20;38.00
19090;DHT22;9677;50.656;13.064;2023-06-04T06:48:04;15.00;37.50
19090;DHT22;9677;50.656;13.064;2023-06-04T06:50:32;15.10;37.60
19090;DHT22;9677;50.656;13.064;2023-06-04T06:53:02;15.10;37.60
19090;DHT22;9677;50.656;13.064;2023-06-04T06:55:30;15.20;37.50
19090;DHT22;9677;50.656;13.064;2023-06-04T06:57:58;15.30;37.50
19090;DHT22;9677;50.656;13.064;2023-06-04T07:00:28;15.30;37.50
19090;DHT22;9677;50.656;13.064;2023-06-04T07:02:56;15.40;37.50
19090;DHT22;9677;50.656;13.064;2023-06-04T07:05:24;15.50;37.40
19090;DHT22;9677;50.656;13.064;2023-06-04T07:07:52;15.60;37.50
19090;DHT22;9677;50.656;13.064;2023-06-04T07:10:21;15.70;37.50
19090;DHT22;9677;50.656;13.064;2023-06-04T07:12:49;15.70;37.40
19090;DHT22;9677;50.656;13.064;2023-06-04T07:15:17;15.90;37.50
19090;DHT22;9677;50.656;13.064;2023-06-04T07:17:46;15.90;37.30
19090;DHT22;9677;50.656;13.064;2023-06-04T07:20:15;17.40;38.30
19090;DHT22;9677;50.656;13.064;2023-06-04T07:22:43;16.20;37.70
19090;DHT22;9677;50.656;13.064;2023-06-04T07:25:11;16.40;37.90
19090;DHT22;9677;50.656;13.064;2023-06-04T07:27:39;16.60;38.10
19090;DHT22;9677;50.656;13.064;2023-06-04T07:30:09;16.80;38.30
19090;DHT22;9677;50.656;13.064;2023-06-04T07:32:37;17.00;38.30
19090;DHT22;9677;50.656;13.064;2023-06-04T07:35:08;17.20;38.10
19090;DHT22;9677;50.656;13.064;2023-06-04T07:37:36;17.50;38.30
19090;DHT22;9677;50.656;13.064;2023-06-04T07:40:05;17.80;38.10
19090;DHT22;9677;50.656;13.064;2023-06-04T07:42:34;18.10;38.10
19090;DHT22;9677;50.656;13.064;2023-06-04T07:45:02;18.50;38.00
19090;DHT22;9677;50.656;13.064;2023-06-04T07:47:31;18.80;37.80
19090;DHT22;9677;50.656;13.064;2023-06-04T07:50:00;19.20;37.70
19090;DHT22;9677;50.656;13.064;2023-06-04T07:52:30;19.50;37.40
19090;DHT22;9677;50.656;13.064;2023-06-04T07:54:59;19.80;37.10
19090;DHT22;9677;50.656;13.064;2023-06-04T07:57:28;20.70;36.90
19090;DHT22;9677;50.656;13.064;2023-06-04T07:59:56;20.50;36.50
19090;DHT22;9677;50.656;13.064;2023-06-04T08:02:24;20.80;36.30
19090;DHT22;9677;50.656;13.064;2023-06-04T08:04:52;21.10;36.50
19090;DHT22;9677;50.656;13.064;2023-06-04T08:07:21;21.50;35.70
19090;DHT22;9677;50.656;13.064;2023-06-04T08:09:50;21.70;35.50
19090;DHT22;9677;50.656;13.064;2023-06-04T08:12:18;22.10;35.20
19090;DHT22;9677;50.656;13.064;2023-06-04T08:14:46;22.30;34.50
19090;DHT22;9677;50.656;13.064;2023-06-04T08:17:14;22.60;34.10
19090;DHT22;9677;50.656;13.064;2023-06-04T08:19:43;24.00;34.10
19090;DHT22;9677;50.656;13.064;2023-06-04T08:22:11;23.10;33.40
19090;DHT22;9677;50.656;13.064;2023-06-04T08:24:39;23.50;33.20
19090;DHT22;9677;50.656;13.064;2023-06-04T08:27:08;23.50;32.70
19090;DHT22;9677;50.656;13.064;2023-06-04T08:29:36;23.70;32.70
19090;DHT22;9677;50.656;13.064;2023-06-04T08:32:06;23.90;32.70
19090;DHT22;9677;50.656;13.064;2023-06-04T08:34:35;24.10;32.60
19090;DHT22;9677;50.656;13.064;2023-06-04T08:37:03;24.30;32.20
19090;DHT22;9677;50.656;13.064;2023-06-04T08:39:32;24.50;32.10
19090;DHT22;9677;50.656;13.064;2023-06-04T08:42:03;24.70;31.90
19090;DHT22;9677;50.656;13.064;2023-06-04T08:44:33;25.00;31.80
19090;DHT22;9677;50.656;13.064;2023-06-04T08:47:03;25.20;31.70
19090;DHT22;9677;50.656;13.064;2023-06-04T08:49:34;25.40;31.80
19090;DHT22;9677;50.656;13.064;2023-06-04T08:52:04;25.40;31.30
19090;DHT22;9677;50.656;13.064;2023-06-04T08:54:33;25.80;31.00
19090;DHT22;9677;50.656;13.064;2023-06-04T08:57:01;26.10;30.80
19090;DHT22;9677;50.656;13.064;2023-06-04T08:59:32;26.30;30.70
19090;DHT22;9677;50.656;13.064;2023-06-04T09:02:00;26.80;30.60
19090;DHT22;9677;50.656;13.064;2023-06-04T09:04:31;26.60;30.10
19090;DHT22;9677;50.656;13.064;2023-06-04T09:07:01;27.10;30.30
19090;DHT22;9677;50.656;13.064;2023-06-04T09:09:30;26.90;29.80
19090;DHT22;9677;50.656;13.064;2023-06-04T09:12:01;27.10;29.70
19090;DHT22;9677;50.656;13.064;2023-06-04T09:14:33;27.20;29.60
19090;DHT22;9677;50.656;13.064;2023-06-04T09:17:01;27.70;29.80
19090;DHT22;9677;50.656;13.064;2023-06-04T09:19:29;27.40;29.30
19090;DHT22;9677;50.656;13.064;2023-06-04T09:21:59;27.60;28.70
19090;DHT22;9677;50.656;13.064;2023-06-04T09:24:39;27.70;28.80
19090;DHT22;9677;50.656;13.064;2023-06-04T09:27:11;27.80;28.50
19090;DHT22;9677;50.656;13.064;2023-06-04T09:29:49;27.80;28.80
19090;DHT22;9677;50.656;13.064;2023-06-04T09:32:21;27.90;28.20
19090;DHT22;9677;50.656;13.064;2023-06-04T09:34:50;28.30;28.50
19090;DHT22;9677;50.656;13.064;2023-06-04T09:37:20;28.10;28.70
19090;DHT22;9677;50.656;13.064;2023-06-04T09:39:53;27.90;28.60
19090;DHT22;9677;50.656;13.064;2023-06-04T09:42:22;28.40;28.60
19090;DHT22;9677;50.656;13.064;2023-06-04T09:44:52;28.70;28.90
19090;DHT22;9677;50.656;13.064;2023-06-04T09:47:20;28.80;28.60
19090;DHT22;9677;50.656;13.064;2023-06-04T09:49:49;28.80;28.40
19090;DHT22;9677;50.656;13.064;2023-06-04T09:52:19;29.00;28.30
19090;DHT22;9677;50.656;13.064;2023-06-04T09:54:47;29.10;28.20
19090;DHT22;9677;50.656;13.064;2023-06-04T09:57:16;29.20;28.10
19090;DHT22;9677;50.656;13.064;2023-06-04T09:59:49;29.30;28.20
19090;DHT22;9677;50.656;13.064;2023-06-04T10:02:20;29.50;28.20
19090;DHT22;9677;50.656;13.064;2023-06-04T10:04:52;29.70;28.10
19090;DHT22;9677;50.656;13.064;2023-06-04T10:07:22;29.80;27.60
19090;DHT22;9677;50.656;13.064;2023-06-04T10:09:52;30.20;27.50
19090;DHT22;9677;50.656;13.064;2023-06-04T10:12:23;30.10;27.30
19090;DHT22;9677;50.656;13.064;2023-06-04T10:14:59;30.40;27.30
19090;DHT22;9677;50.656;13.064;2023-06-04T10:17:30;30.30;27.30
19090;DHT22;9677;50.656;13.064;2023-06-04T10:20:01;30.50;27.40
19090;DHT22;9677;50.656;13.064;2023-06-04T10:22:32;30.80;27.50
19090;DHT22;9677;50.656;13.064;2023-06-04T10:25:01;30.70;27.00
19090;DHT22;9677;50.656;13.064;2023-06-04T10:27:30;30.80;27.00
19090;DHT22;9677;50.656;13.064;2023-06-04T10:30:01;31.00;27.00
19090;DHT22;9677;50.656;13.064;2023-06-04T10:32:30;30.90;26.80
19090;DHT22;9677;50.656;13.064;2023-06-04T10:34:58;31.30;26.60
19090;DHT22;9677;50.656;13.064;2023-06-04T10:37:31;31.30;26.20
19090;DHT22;9677;50.656;13.064;2023-06-04T10:40:00;31.50;26.40
19090;DHT22;9677;50.656;13.064;2023-06-04T10:42:38;31.40;26.30
19090;DHT22;9677;50.656;13.064;2023-06-04T10:45:09;31.50;25.90
19090;DHT22;9677;50.656;13.064;2023-06-04T10:47:38;31.60;26.10
19090;DHT22;9677;50.656;13.064;2023-06-04T10:50:09;31.90;26.20
19090;DHT22;9677;50.656;13.064;2023-06-04T10:52:38;31.70;26.10
19090;DHT22;9677;50.656;13.064;2023-06-04T10:55:08;31.70;25.90
19090;DHT22;9677;50.656;13.064;2023-06-04T10:57:37;31.90;26.00
19090;DHT22;9677;50.656;13.064;2023-06-04T11:00:06;32.00;26.00
19090;DHT22;9677;50.656;13.064;2023-06-04T11:02:42;32.20;26.00
19090;DHT22;9677;50.656;13.064;2023-06-04T11:05:18;32.40;25.90
19090;DHT22;9677;50.656;13.064;2023-06-04T11:07:48;32.60;26.10
19090;DHT22;9677;50.656;13.064;2023-06-04T11:10:17;32.80;26.10
19090;DHT22;9677;50.656;13.064;2023-06-04T11:12:46;32.80;25.90
19090;DHT22;9677;50.656;13.064;2023-06-04T11:15:18;33.00;25.60
19090;DHT22;9677;50.656;13.064;2023-06-04T11:17:51;33.00;25.40
19090;DHT22;9677;50.656;13.064;2023-06-04T11:20:20;33.20;25.20
19090;DHT22;9677;50.656;13.064;2023-06-04T11:22:54;33.20;25.10
19090;DHT22;9677;50.656;13.064;2023-06-04T11:25:24;33.30;25.00
19090;DHT22;9677;50.656;13.064;2023-06-04T11:27:53;33.30;25.10
19090;DHT22;9677;50.656;13.064;2023-06-04T11:30:25;33.40;24.70
19090;DHT22;9677;50.656;13.064;2023-06-04T11:33:00;33.40;24.70
19090;DHT22;9677;50.656;13.064;2023-06-04T11:35:29;33.40;24.40
19090;DHT22;9677;50.656;13.064;2023-06-04T11:37:58;33.40;24.70
19090;DHT22;9677;50.656;13.064;2023-06-04T11:40:26;33.40;24.60
19090;DHT22;9677;50.656;13.064;2023-06-04T11:42:55;33.50;24.70
19090;DHT22;9677;50.656;13.064;2023-06-04T11:45:24;33.50;24.60
19090;DHT22;9677;50.656;13.064;2023-06-04T11:47:57;33.60;24.60
19090;DHT22;9677;50.656;13.064;2023-06-04T11:50:27;33.60;24.50
19090;DHT22;9677;50.656;13.064;2023-06-04T11:52:56;33.60;24.30
19090;DHT22;9677;50.656;13.064;2023-06-04T11:55:25;33.70;24.90
19090;DHT22;9677;50.656;13.064;2023-06-04T11:57:53;33.80;24.40
19090;DHT22;9677;50.656;13.064;2023-06-04T12:00:22;33.90;24.50
19090;DHT22;9677;50.656;13.064;2023-06-04T12:02:52;33.90;24.40
19090;DHT22;9677;50.656;13.064;2023-06-04T12:05:28;34.00;24.50
19090;DHT22;9677;50.656;13.064;2023-06-04T12:08:07;34.10;24.30
19090;DHT22;9677;50.656;13.064;2023-06-04T12:10:37;34.20;23.70
19090;DHT22;9677;50.656;13.064;2023-06-04T12:13:06;34.20;23.90
19090;DHT22;9677;50.656;13.064;2023-06-04T12:15:34;34.10;23.80
19090;DHT22;9677;50.656;13.064;2023-06-04T12:18:04;34.10;23.80
19090;DHT22;9677;50.656;13.064;2023-06-04T12:20:34;34.10;23.70
19090;DHT22;9677;50.656;13.064;2023-06-04T12:23:03;34.20;23.80
19090;DHT22;9677;50.656;13.064;2023-06-04T12:25:34;34.10;23.80
19090;DHT22;9677;50.656;13.064;2023-06-04T12:28:04;34.20;23.90
19090;DHT22;9677;50.656;13.064;2023-06-04T12:30:36;34.30;23.90
19090;DHT22;9677;50.656;13.064;2023-06-04T12:33:05;34.30;23.40
19090;DHT22;9677;50.656;13.064;2023-06-04T12:35:34;34.20;23.40
19090;DHT22;9677;50.656;13.064;2023-06-04T12:38:03;34.10;23.60
19090;DHT22;9677;50.656;13.064;2023-06-04T12:40:32;34.10;23.60
19090;DHT22;9677;50.656;13.064;2023-06-04T12:43:00;34.10;23.50
19090;DHT22;9677;50.656;13.064;2023-06-04T12:45:28;34.10;23.50
19090;DHT22;9677;50.656;13.064;2023-06-04T12:47:56;34.10;23.20
19090;DHT22;9677;50.656;13.064;2023-06-04T12:50:26;34.10;23.20
19090;DHT22;9677;50.656;13.064;2023-06-04T12:52:54;34.20;23.20
19090;DHT22;9677;50.656;13.064;2023-06-04T12:55:22;34.00;23.30
19090;DHT22;9677;50.656;13.064;2023-06-04T12:57:54;34.00;23.00
19090;DHT22;9677;50.656;13.064;2023-06-04T13:00:22;34.00;23.00
19090;DHT22;9677;50.656;13.064;2023-06-04T13:02:50;33.90;23.10
19090;DHT22;9677;50.656;13.064;2023-06-04T13:05:18;33.90;23.20
19090;DHT22;9677;50.656;13.064;2023-06-04T13:07:48;33.90;23.20
19090;DHT22;9677;50.656;13.064;2023-06-04T13:10:16;33.80;23.20
19090;DHT22;9677;50.656;13.064;2023-06-04T13:12:44;33.70;23.30
19090;DHT22;9677;50.656;13.064;2023-06-04T13:15:12;33.80;23.40
19090;DHT22;9677;50.656;13.064;2023-06-04T13:17:40;33.80;23.40
19090;DHT22;9677;50.656;13.064;2023-06-04T13:20:09;33.90;23.40
19090;DHT22;9677;50.656;13.064;2023-06-04T13:22:38;33.90;23.20
19090;DHT22;9677;50.656;13.064;2023-06-04T13:25:08;33.90;23.10
19090;DHT22;9677;50.656;13.064;2023-06-04T13:27:37;33.90;22.90
19090;DHT22;9677;50.656;13.064;2023-06-04T13:30:05;34.00;23.00
19090;DHT22;9677;50.656;13.064;2023-06-04T13:32:34;33.80;22.80
19090;DHT22;9677;50.656;13.064;2023-06-04T13:35:03;33.90;22.60
19090;DHT22;9677;50.656;13.064;2023-06-04T13:37:32;33.70;22.40
19090;DHT22;9677;50.656;13.064;2023-06-04T13:40:00;33.50;22.50
19090;DHT22;9677;50.656;13.064;2023-06-04T13:42:30;33.50;22.60
19090;DHT22;9677;50.656;13.064;2023-06-04T13:44:58;33.40;22.60
19090;DHT22;9677;50.656;13.064;2023-06-04T13:47:26;33.30;22.70
19090;DHT22;9677;50.656;13.064;2023-06-04T13:49:54;33.20;22.80
19090;DHT22;9677;50.656;13.064;2023-06-04T13:52:23;33.10;22.80
19090;DHT22;9677;50.656;13.064;2023-06-04T13:54:51;33.10;22.80
19090;DHT22;9677;50.656;13.064;2023-06-04T13:57:19;33.10;22.80
19090;DHT22;9677;50.656;13.064;2023-06-04T13:59:49;33.10;22.80
19090;DHT22;9677;50.656;13.064;2023-06-04T14:02:17;33.10;22.80
19090;DHT22;9677;50.656;13.064;2023-06-04T14:04:45;33.10;22.80
19090;DHT22;9677;50.656;13.064;2023-06-04T14:07:13;33.10;22.80
19090;DHT22;9677;50.656;13.064;2023-06-04T14:09:41;33.00;22.80
19090;DHT22;9677;50.656;13.064;2023-06-04T14:12:09;32.90;22.80
19090;DHT22;9677;50.656;13.064;2023-06-04T14:14:37;33.00;22.90
19090;DHT22;9677;50.656;13.064;2023-06-04T14:17:07;32.80;22.90
19090;DHT22;9677;50.656;13.064;2023-06-04T14:19:35;32.80;22.60
19090;DHT22;9677;50.656;13.064;2023-06-04T14:22:03;32.80;22.50
19090;DHT22;9677;50.656;13.064;2023-06-04T14:24:32;32.70;22.70
19090;DHT22;9677;50.656;13.064;2023-06-04T14:27:00;32.60;22.70
19090;DHT22;9677;50.656;13.064;2023-06-04T14:29:28;32.50;22.80
19090;DHT22;9677;50.656;13.064;2023-06-04T14:31:56;32.50;22.70
19090;DHT22;9677;50.656;13.064;2023-06-04T14:34:26;32.60;23.00
19090;DHT22;9677;50.656;13.064;2023-06-04T14:36:54;32.60;23.00
19090;DHT22;9677;50.656;13.064;2023-06-04T14:39:24;32.40;23.00
19090;DHT22;9677;50.656;13.064;2023-06-04T14:41:52;32.40;23.10
19090;DHT22;9677;50.656;13.064;2023-06-04T14:44:20;32.50;23.10
19090;DHT22;9677;50.656;13.064;2023-06-04T14:46:49;32.50;23.20
19090;DHT22;9677;50.656;13.064;2023-06-04T14:49:18;32.40;23.00
19090;DHT22;9677;50.656;13.064;2023-06-04T14:51:48;32.40;23.00
19090;DHT22;9677;50.656;13.064;2023-06-04T14:54:16;32.30;22.90
19090;DHT22;9677;50.656;13.064;2023-06-04T14:56:44;32.40;23.00
19090;DHT22;9677;50.656;13.064;2023-06-04T14:59:12;32.40;22.90
19090;DHT22;9677;50.656;13.064;2023-06-04T15:01:41;32.20;22.70
19090;DHT22;9677;50.656;13.064;2023-06-04T15:04:10;32.10;22.80
19090;DHT22;9677;50.656;13.064;2023-06-04T15:06:38;32.10;22.80
19090;DHT22;9677;50.656;13.064;2023-06-04T15:09:07;32.10;22.80
19090;DHT22;9677;50.656;13.064;2023-06-04T15:11:35;32.10;22.90
19090;DHT22;9677;50.656;13.064;2023-06-04T15:14:03;31.90;22.90
19090;DHT22;9677;50.656;13.064;2023-06-04T15:16:31;31.90;22.50
19090;DHT22;9677;50.656;13.064;2023-06-04T15:19:00;32.00;22.80
19090;DHT22;9677;50.656;13.064;2023-06-04T15:21:28;31.80;22.70
19090;DHT22;9677;50.656;13.064;2023-06-04T15:23:56;31.80;22.80
19090;DHT22;9677;50.656;13.064;2023-06-04T15:26:25;31.70;22.60
19090;DHT22;9677;50.656;13.064;2023-06-04T15:28:54;31.70;22.80
19090;DHT22;9677;50.656;13.064;2023-06-04T15:31:23;31.80;22.90
19090;DHT22;9677;50.656;13.064;2023-06-04T15:33:51;31.60;22.80
19090;DHT22;9677;50.656;13.064;2023-06-04T15:36:19;31.60;22.90
19090;DHT22;9677;50.656;13.064;2023-06-04T15:38:48;31.50;22.90
19090;DHT22;9677;50.656;13.064;2023-06-04T15:41:18;31.80;23.00
19090;DHT22;9677;50.656;13.064;2023-06-04T15:43:51;31.50;23.00
19090;DHT22;9677;50.656;13.064;2023-06-04T15:46:22;31.40;23.00